Time;durP1;ratioP1;P1;durP2;ratioP2;P2;SDS_P1;SDS_P2;PMS_P1;PMS_P2;Temp;Humidity;BMP_temperature;BMP_pressure;BME280_temperature;BME280_humidity;BME280_pressure;Samples;Min_cycle;Max_cycle;Signal;HPM_P1;HPM_P2
2024/04/18 00:00:26;;;;;;;;;;;;;;;15.96;76.13;98126.00;5452219;26;19924;-26
2024/04/18 00:02:51;;;;;;;;;;;;;;;16.08;75.63;98119.47;5452096;26;19931;-26
2024/04/18 00:05:18;;;;;;;;;;;;;;;15.82;76.30;98115.09;5451553;26;19931;-26
2024/04/18 00:07:44;;;;;;;;;;;;;;;15.74;75.83;98117.53;5451850;26;19931;-26
2024/04/18 00:10:09;;;;;;;;;;;;;;;15.51;74.90;98137.72;5452090;26;19924;-26
2024/04/18 00:12:34;;;;;;;;;;;;;;;15.90;73.70;98131.69;5451974;26;19931;-25
2024/04/18 00:14:59;;;;;;;;;;;;;;;15.99;73.35;98127.31;5452064;26;20341;-26
2024/04/18 00:17:25;;;;;;;;;;;;;;;15.94;72.43;98119.31;5451285;26;20253;-26
2024/04/18 00:19:50;;;;;;;;;;;;;;;15.97;73.90;98090.03;5451081;26;20037;-26
2024/04/18 00:22:15;;;;;;;;;;;;;;;16.25;71.85;98097.63;5451818;26;19925;-27
2024/04/18 00:24:41;;;;;;;;;;;;;;;16.42;70.38;98088.06;5451243;26;19976;-26
2024/04/18 00:27:06;;;;;;;;;;;;;;;16.63;68.78;98098.63;5451549;26;20353;-26
2024/04/18 00:29:31;;;;;;;;;;;;;;;16.40;70.16;98110.91;5451771;26;19924;-26
2024/04/18 00:31:56;;;;;;;;;;;;;;;16.20;70.14;98114.53;5451287;26;19932;-26
2024/04/18 00:34:22;;;;;;;;;;;;;;;16.30;70.05;98103.75;5451129;26;19931;-26
2024/04/18 00:36:47;;;;;;;;;;;;;;;16.29;68.38;98094.09;5451026;26;19924;-26
2024/04/18 00:39:12;;;;;;;;;;;;;;;16.40;69.07;98098.28;5451268;26;20364;-26
2024/04/18 00:41:37;;;;;;;;;;;;;;;16.49;69.02;98105.75;5451630;26;20241;-26
2024/04/18 00:44:02;;;;;;;;;;;;;;;16.67;69.07;98110.41;5451105;26;19948;-27
2024/04/18 00:46:28;;;;;;;;;;;;;;;16.75;68.02;98106.31;5451130;26;19924;-27
2024/04/18 00:48:56;;;;;;;;;;;;;;;16.66;67.73;98086.50;5449625;26;19960;-26
2024/04/18 00:51:22;;;;;;;;;;;;;;;16.74;66.85;98099.34;5451186;26;20353;-27
2024/04/18 00:53:47;;;;;;;;;;;;;;;16.83;67.11;98115.66;5450641;26;19946;-26
2024/04/18 00:56:12;;;;;;;;;;;;;;;17.02;66.71;98116.56;5450831;26;19924;-27
2024/04/18 00:58:38;;;;;;;;;;;;;;;16.99;66.46;98112.53;5451250;26;19935;-26
2024/04/18 01:01:03;;;;;;;;;;;;;;;16.53;67.94;98115.63;5450631;26;19925;-25
2024/04/18 01:03:28;;;;;;;;;;;;;;;16.71;67.38;98108.75;5450126;26;19992;-27
2024/04/18 01:05:55;;;;;;;;;;;;;;;16.72;67.63;98112.25;5450376;26;19925;-27
2024/04/18 01:08:20;;;;;;;;;;;;;;;16.83;67.08;98127.22;5450851;26;19931;-26
2024/04/18 01:10:46;;;;;;;;;;;;;;;16.68;68.04;98112.03;5450516;26;20337;-26
2024/04/18 01:13:11;;;;;;;;;;;;;;;16.15;69.73;98107.34;5450406;26;19931;-26
2024/04/18 01:15:36;;;;;;;;;;;;;;;16.44;69.36;98116.53;5450688;26;20588;-27
2024/04/18 01:18:01;;;;;;;;;;;;;;;16.50;68.89;98120.78;5450433;26;19935;-27
2024/04/18 01:20:27;;;;;;;;;;;;;;;16.29;67.83;98112.88;5449776;26;19932;-26
2024/04/18 01:22:52;;;;;;;;;;;;;;;15.79;70.11;98112.94;5450460;26;19931;-26
2024/04/18 01:25:17;;;;;;;;;;;;;;;15.74;70.01;98118.31;5450399;26;19924;-27
2024/04/18 01:27:43;;;;;;;;;;;;;;;15.89;69.96;98117.44;5450426;26;20043;-26
2024/04/18 01:30:08;;;;;;;;;;;;;;;16.01;69.92;98115.22;5450897;26;19941;-26
2024/04/18 01:32:34;;;;;;;;;;;;;;;16.13;69.01;98128.28;5450886;26;19924;-27
2024/04/18 01:34:59;;;;;;;;;;;;;;;15.88;70.46;98129.25;5450362;26;19932;-27
2024/04/18 01:37:24;;;;;;;;;;;;;;;15.86;70.73;98131.44;5450409;26;19924;-27
2024/04/18 01:39:50;;;;;;;;;;;;;;;15.85;71.20;98123.66;5448607;26;19993;-26
2024/04/18 01:42:15;;;;;;;;;;;;;;;15.79;71.09;98122.88;5450399;26;19951;-27
2024/04/18 01:44:41;;;;;;;;;;;;;;;15.95;70.60;98134.31;5450133;26;19925;-27
2024/04/18 01:47:06;;;;;;;;;;;;;;;15.84;71.78;98136.25;5450098;26;19993;-27
2024/04/18 01:49:31;;;;;;;;;;;;;;;15.84;71.66;98141.63;5449640;26;20065;-27
2024/04/18 01:51:56;;;;;;;;;;;;;;;15.76;71.43;98140.34;5449947;26;19924;-26
2024/04/18 01:54:21;;;;;;;;;;;;;;;15.92;70.79;98149.09;5449791;26;19989;-27
2024/04/18 01:56:47;;;;;;;;;;;;;;;16.00;70.54;98155.75;5448317;26;19925;-27
2024/04/18 01:59:12;;;;;;;;;;;;;;;16.13;70.14;98157.81;5451537;26;19924;-27
2024/04/18 02:01:37;;;;;;;;;;;;;;;15.98;71.29;98161.38;5453826;26;19993;-27
2024/04/18 02:04:02;;;;;;;;;;;;;;;15.94;72.18;98154.19;5453329;26;19925;-27
2024/04/18 02:06:28;;;;;;;;;;;;;;;15.49;72.74;98164.00;5452725;26;19924;-27
2024/04/18 02:08:53;;;;;;;;;;;;;;;15.70;72.35;98141.38;5453581;26;19924;-27
2024/04/18 02:11:18;;;;;;;;;;;;;;;15.53;72.99;98160.50;5452529;26;19948;-27
2024/04/18 02:13:43;;;;;;;;;;;;;;;14.58;75.78;98167.41;5452878;26;19925;-27
2024/04/18 02:16:09;;;;;;;;;;;;;;;14.64;75.01;98157.47;5452976;26;19924;-28
2024/04/18 02:18:34;;;;;;;;;;;;;;;14.30;75.66;98168.69;5453308;26;20000;-26
2024/04/18 02:20:59;;;;;;;;;;;;;;;13.77;76.58;98166.16;5453176;26;19993;-28
2024/04/18 02:23:24;;;;;;;;;;;;;;;13.82;77.84;98168.84;5453445;26;19936;-28
2024/04/18 02:25:50;;;;;;;;;;;;;;;13.84;76.50;98173.91;5453960;26;19946;-26
2024/04/18 02:28:15;;;;;;;;;;;;;;;13.72;75.77;98176.03;5453272;26;19924;-26
2024/04/18 02:30:40;;;;;;;;;;;;;;;13.62;75.54;98177.59;5453278;26;20363;-26
2024/04/18 02:33:05;;;;;;;;;;;;;;;12.63;74.36;98179.91;5453167;26;19931;-27
2024/04/18 02:35:31;;;;;;;;;;;;;;;12.98;76.24;98188.44;5453118;26;19924;-26
2024/04/18 02:37:56;;;;;;;;;;;;;;;12.65;75.89;98168.97;5454032;26;19925;-26
2024/04/18 02:40:21;;;;;;;;;;;;;;;12.76;77.52;98178.66;5453666;26;19924;-27
2024/04/18 02:42:46;;;;;;;;;;;;;;;12.78;75.63;98176.53;5452434;26;19925;-26
2024/04/18 02:45:12;;;;;;;;;;;;;;;13.00;75.41;98165.72;5453038;26;19925;-26
2024/04/18 02:47:37;;;;;;;;;;;;;;;12.61;78.03;98167.88;5453509;26;19931;-27
2024/04/18 02:50:02;;;;;;;;;;;;;;;12.67;76.24;98169.53;5452663;26;19931;-27
2024/04/18 02:52:27;;;;;;;;;;;;;;;12.65;74.62;98177.78;5453215;26;19932;-26
2024/04/18 02:54:53;;;;;;;;;;;;;;;12.64;77.40;98170.84;5453136;26;19925;-27
2024/04/18 02:57:18;;;;;;;;;;;;;;;12.11;76.57;98167.97;5453039;26;20214;-26
2024/04/18 02:59:43;;;;;;;;;;;;;;;12.17;76.75;98165.38;5453415;26;19932;-27
2024/04/18 03:02:08;;;;;;;;;;;;;;;12.18;76.27;98182.97;5453490;26;19925;-27
2024/04/18 03:04:34;;;;;;;;;;;;;;;12.19;77.03;98174.72;5453309;26;19924;-26
2024/04/18 03:06:59;;;;;;;;;;;;;;;11.76;78.08;98168.34;5453613;26;19932;-26
2024/04/18 03:09:24;;;;;;;;;;;;;;;11.82;75.70;98174.53;5453033;26;19931;-27
2024/04/18 03:11:50;;;;;;;;;;;;;;;11.44;76.71;98189.53;5452051;26;20254;-26
2024/04/18 03:14:15;;;;;;;;;;;;;;;11.64;78.29;98186.34;5453308;26;20350;-26
2024/04/18 03:16:41;;;;;;;;;;;;;;;11.39;79.99;98194.81;5453328;26;20245;-26
2024/04/18 03:19:12;;;;;;;;;;;;;;;11.63;76.68;98174.88;5452743;26;19955;-26
2024/04/18 03:21:37;;;;;;;;;;;;;;;11.74;78.03;98181.91;5452555;26;19924;-26
2024/04/18 03:24:04;;;;;;;;;;;;;;;12.03;77.62;98184.44;5452733;26;19925;-26
2024/04/18 03:26:29;;;;;;;;;;;;;;;11.82;75.91;98179.88;5452009;26;19939;-25
2024/04/18 03:28:54;;;;;;;;;;;;;;;11.93;74.92;98189.63;5452803;26;19931;-26
2024/04/18 03:31:19;;;;;;;;;;;;;;;11.74;75.16;98195.25;5452787;26;19925;-26
2024/04/18 03:33:44;;;;;;;;;;;;;;;11.88;80.95;98184.19;5452594;26;19924;-26
2024/04/18 03:36:10;;;;;;;;;;;;;;;11.54;75.62;98190.50;5452642;26;19932;-26
2024/04/18 03:38:35;;;;;;;;;;;;;;;11.53;74.95;98190.72;5452733;26;19924;-26
2024/04/18 03:41:00;;;;;;;;;;;;;;;11.31;77.88;98194.19;5452300;26;19931;-26
2024/04/18 03:43:25;;;;;;;;;;;;;;;11.43;77.43;98198.59;5452909;26;20253;-26
2024/04/18 03:46:00;;;;;;;;;;;;;;;11.68;78.02;98182.94;5452255;26;19924;-26
2024/04/18 03:48:26;;;;;;;;;;;;;;;11.82;75.85;98190.53;5452718;26;20264;-27
2024/04/18 03:50:51;;;;;;;;;;;;;;;11.90;75.73;98179.50;5452785;26;19924;-26
2024/04/18 03:53:16;;;;;;;;;;;;;;;11.73;74.68;98185.66;5452232;26;19970;-26
2024/04/18 03:55:41;;;;;;;;;;;;;;;11.50;77.10;98176.06;5452210;26;20452;-26
2024/04/18 03:58:07;;;;;;;;;;;;;;;11.58;75.28;98185.47;5452091;26;20242;-27
2024/04/18 04:00:32;;;;;;;;;;;;;;;11.83;75.56;98184.97;5452485;26;19924;-26
2024/04/18 04:02:57;;;;;;;;;;;;;;;11.77;73.81;98185.97;5452998;26;20401;-26
2024/04/18 04:05:22;;;;;;;;;;;;;;;11.72;73.66;98197.34;5452310;26;19925;-27
2024/04/18 04:07:48;;;;;;;;;;;;;;;12.31;73.09;98195.88;5453005;26;19931;-27
2024/04/18 04:10:13;;;;;;;;;;;;;;;13.01;70.65;98196.72;5452674;26;19930;-27
2024/04/18 04:12:39;;;;;;;;;;;;;;;12.56;71.19;98202.50;5512116;26;19932;-26
2024/04/18 04:15:05;;;;;;;;;;;;;;;12.60;70.24;98207.06;5452477;26;19924;-27
2024/04/18 04:17:30;;;;;;;;;;;;;;;12.20;70.00;98197.63;5451490;26;20367;-26
2024/04/18 04:19:55;;;;;;;;;;;;;;;12.19;70.20;98198.72;5450412;26;19924;-26
2024/04/18 04:22:21;;;;;;;;;;;;;;;12.45;74.36;98207.78;5448606;26;20024;-26
2024/04/18 04:24:46;;;;;;;;;;;;;;;14.52;74.87;98203.19;5450466;26;19932;-27
2024/04/18 04:27:11;;;;;;;;;;;;;;;14.88;61.47;98211.28;5450543;26;19936;-27
2024/04/18 04:29:36;;;;;;;;;;;;;;;14.28;62.58;98210.94;5450437;26;19932;-27
2024/04/18 04:32:02;;;;;;;;;;;;;;;14.24;62.35;98224.06;5450268;26;19925;-27
2024/04/18 04:34:27;;;;;;;;;;;;;;;13.87;63.93;98230.34;5451796;26;19939;-27
2024/04/18 04:36:52;;;;;;;;;;;;;;;14.21;66.88;98237.16;5452508;26;19930;-28
2024/04/18 04:39:17;;;;;;;;;;;;;;;14.23;62.59;98246.50;5452373;26;19932;-26
2024/04/18 04:41:43;;;;;;;;;;;;;;;13.25;64.39;98249.75;5452355;26;19952;-26
2024/04/18 04:44:08;;;;;;;;;;;;;;;12.36;67.04;98249.28;5452701;26;20001;-28
2024/04/18 04:46:33;;;;;;;;;;;;;;;12.57;66.30;98254.84;5469645;26;20355;-29
2024/04/18 04:48:58;;;;;;;;;;;;;;;12.48;66.22;98260.59;5488848;26;19954;-27
2024/04/18 04:51:24;;;;;;;;;;;;;;;12.46;66.65;98261.94;5488996;26;19924;-27
2024/04/18 04:53:49;;;;;;;;;;;;;;;12.51;67.25;98275.31;5472473;26;19932;-27
2024/04/18 04:56:14;;;;;;;;;;;;;;;11.62;69.53;98281.72;5478386;26;19988;-27
2024/04/18 04:58:39;;;;;;;;;;;;;;;12.01;67.95;98290.50;5489330;26;19924;-28
2024/04/18 05:01:04;;;;;;;;;;;;;;;12.26;67.06;98305.19;5459263;26;19992;-27
2024/04/18 05:03:30;;;;;;;;;;;;;;;11.89;67.91;98298.63;5451043;26;19928;-28
2024/04/18 05:05:55;;;;;;;;;;;;;;;11.55;68.13;98303.19;5452208;26;19992;-27
2024/04/18 05:08:20;;;;;;;;;;;;;;;11.89;67.84;98311.09;5452743;26;19932;-26
2024/04/18 05:10:45;;;;;;;;;;;;;;;12.11;67.04;98314.63;5466352;26;19992;-28
2024/04/18 05:13:11;;;;;;;;;;;;;;;12.09;67.94;98316.75;5466862;26;19924;-27
2024/04/18 05:15:36;;;;;;;;;;;;;;;12.36;67.77;98302.66;5467480;26;19930;-28
2024/04/18 05:18:02;;;;;;;;;;;;;;;12.26;65.95;98307.84;5447128;26;19939;-27
2024/04/18 05:20:28;;;;;;;;;;;;;;;12.28;65.90;98322.56;5467001;26;19931;-27
2024/04/18 05:22:53;;;;;;;;;;;;;;;11.91;67.23;98322.34;5467967;26;19925;-27
2024/04/18 05:25:18;;;;;;;;;;;;;;;12.04;66.71;98324.66;5468538;26;19931;-40
2024/04/18 05:27:54;;;;;;;;;;;;;;;12.16;66.89;98324.53;5450895;26;20076;-42
2024/04/18 05:33:04;;;;;;;;;;;;;;;11.74;66.94;98333.03;5448432;26;20367;-41
2024/04/18 05:35:29;;;;;;;;;;;;;;;11.69;67.58;98328.44;5453875;26;19932;-44
2024/04/18 05:37:55;;;;;;;;;;;;;;;11.65;67.45;98327.31;5455207;26;20345;-42
2024/04/18 05:40:20;;;;;;;;;;;;;;;12.02;67.92;98332.09;5454809;26;19924;-41
2024/04/18 05:42:46;;;;;;;;;;;;;;;12.40;66.99;98340.31;5455101;26;19924;-41
2024/04/18 05:45:11;;;;;;;;;;;;;;;12.99;65.38;98343.03;5453975;26;19924;-42
2024/04/18 05:47:36;;;;;;;;;;;;;;;12.71;63.45;98342.22;5453067;26;19940;-42
2024/04/18 05:50:01;;;;;;;;;;;;;;;12.40;65.18;98350.97;5455333;26;19924;-42
2024/04/18 05:52:27;;;;;;;;;;;;;;;12.33;65.86;98357.28;5455340;26;19930;-43
2024/04/18 05:54:52;;;;;;;;;;;;;;;12.90;68.29;98352.56;5454494;26;20264;-41
2024/04/18 05:57:17;;;;;;;;;;;;;;;13.14;62.40;98358.41;5454440;26;19930;-41
2024/04/18 05:59:42;;;;;;;;;;;;;;;13.17;61.00;98368.56;5454789;26;19967;-41
2024/04/18 06:02:08;;;;;;;;;;;;;;;13.53;59.17;98368.09;5454702;26;19932;-39
2024/04/18 06:04:33;;;;;;;;;;;;;;;13.36;59.24;98376.25;5454613;26;19993;-41
2024/04/18 06:06:58;;;;;;;;;;;;;;;13.92;58.94;98373.16;5454381;26;20264;-41
2024/04/18 06:09:23;;;;;;;;;;;;;;;14.78;57.56;98380.78;5454495;26;20234;-43
2024/04/18 06:11:48;;;;;;;;;;;;;;;14.03;58.54;98375.66;5454161;26;19924;-42
2024/04/18 06:14:14;;;;;;;;;;;;;;;14.42;58.47;98377.97;5454923;26;19954;-40
2024/04/18 06:16:39;;;;;;;;;;;;;;;14.47;57.39;98378.00;5453022;26;19955;-41
2024/04/18 06:19:04;;;;;;;;;;;;;;;14.54;57.15;98385.75;5453025;26;19928;-41
2024/04/18 06:21:29;;;;;;;;;;;;;;;14.55;57.85;98392.75;5453658;26;19924;-41
2024/04/18 06:23:55;;;;;;;;;;;;;;;14.38;57.57;98389.47;5453170;26;19989;-39
2024/04/18 06:26:21;;;;;;;;;;;;;;;14.28;56.83;98387.53;5453464;26;20390;-43
2024/04/18 06:28:46;;;;;;;;;;;;;;;14.30;56.78;98376.56;5454746;26;19964;-41
2024/04/18 06:31:13;;;;;;;;;;;;;;;14.79;56.29;98385.09;5453783;26;20345;-43
2024/04/18 06:33:38;;;;;;;;;;;;;;;14.40;56.90;98388.13;5453320;26;19924;-43
2024/04/18 06:36:03;;;;;;;;;;;;;;;14.37;57.73;98385.97;5454711;26;19931;-41
2024/04/18 06:38:29;;;;;;;;;;;;;;;15.08;57.16;98389.97;5453674;26;19924;-43
2024/04/18 06:40:54;;;;;;;;;;;;;;;14.02;57.58;98403.44;5454192;26;19932;-44
2024/04/18 06:43:19;;;;;;;;;;;;;;;13.74;58.34;98401.13;5454736;26;20356;-39
2024/04/18 06:45:44;;;;;;;;;;;;;;;13.94;60.73;98411.16;5452762;26;20282;-41
2024/04/18 06:48:10;;;;;;;;;;;;;;;13.83;60.17;98419.09;5453632;26;19936;-41
2024/04/18 06:50:38;;;;;;;;;;;;;;;13.39;61.87;98429.19;5454559;26;20186;-41
2024/04/18 06:53:04;;;;;;;;;;;;;;;13.72;60.50;98432.66;5454059;26;19924;-42
2024/04/18 06:55:29;;;;;;;;;;;;;;;13.76;60.50;98439.09;5453861;26;20001;-40
2024/04/18 06:57:55;;;;;;;;;;;;;;;13.54;59.01;98442.66;5454051;26;19925;-43
2024/04/18 07:00:21;;;;;;;;;;;;;;;13.22;59.82;98459.44;5453853;26;19924;-41
2024/04/18 07:02:46;;;;;;;;;;;;;;;13.51;58.94;98445.84;5453946;26;19932;-41
2024/04/18 07:05:11;;;;;;;;;;;;;;;13.88;58.40;98445.09;5453826;26;20413;-46
2024/04/18 07:07:36;;;;;;;;;;;;;;;13.78;58.24;98447.66;5453316;26;19932;-42
2024/04/18 07:10:02;;;;;;;;;;;;;;;13.95;58.45;98448.31;5453637;26;19931;-41
2024/04/18 07:12:27;;;;;;;;;;;;;;;13.82;58.13;98448.75;5453831;26;19931;-45
2024/04/18 07:14:52;;;;;;;;;;;;;;;13.62;59.11;98470.81;5453475;26;19932;-42
2024/04/18 07:17:17;;;;;;;;;;;;;;;13.00;60.36;98450.66;5453832;26;19939;-40
2024/04/18 07:19:43;;;;;;;;;;;;;;;13.17;59.71;98446.03;5454477;26;19924;-43
2024/04/18 07:22:08;;;;;;;;;;;;;;;13.16;59.11;98456.97;5453319;26;19924;-41
2024/04/18 07:24:33;;;;;;;;;;;;;;;13.14;59.09;98451.88;5453198;26;19934;-41
2024/04/18 07:26:59;;;;;;;;;;;;;;;13.02;59.92;98461.88;5454217;26;20025;-39
2024/04/18 07:29:24;;;;;;;;;;;;;;;13.06;57.99;98457.66;5453656;26;19932;-44
2024/04/18 07:31:49;;;;;;;;;;;;;;;12.94;58.11;98471.16;5454078;26;19925;-42
2024/04/18 07:34:14;;;;;;;;;;;;;;;13.06;57.82;98465.66;5454369;26;20307;-41
2024/04/18 07:36:40;;;;;;;;;;;;;;;13.06;57.77;98479.84;5454175;26;19924;-45
2024/04/18 07:39:05;;;;;;;;;;;;;;;13.17;57.15;98469.25;5454106;26;19935;-44
2024/04/18 07:41:30;;;;;;;;;;;;;;;13.55;57.08;98473.66;5453262;26;19931;-46
2024/04/18 07:43:56;;;;;;;;;;;;;;;13.96;56.01;98475.91;5453129;26;19925;-47
2024/04/18 07:46:21;;;;;;;;;;;;;;;13.52;56.31;98482.22;5454072;26;19932;-43
2024/04/18 07:48:47;;;;;;;;;;;;;;;13.16;57.68;98489.03;5453480;26;20267;-44
2024/04/18 07:51:12;;;;;;;;;;;;;;;13.55;56.79;98475.53;5454007;26;19932;-45
2024/04/18 07:53:38;;;;;;;;;;;;;;;13.82;55.35;98480.84;5454592;26;20273;-44
2024/04/18 07:56:04;;;;;;;;;;;;;;;13.64;56.19;98482.03;5453777;26;19925;-44
2024/04/18 07:58:29;;;;;;;;;;;;;;;14.35;55.68;98479.06;5453806;26;19924;-42
2024/04/18 08:00:54;;;;;;;;;;;;;;;14.10;53.94;98492.31;5454171;26;19925;-44
2024/04/18 08:03:20;;;;;;;;;;;;;;;14.04;54.75;98502.16;5453694;26;19924;-45
2024/04/18 08:05:45;;;;;;;;;;;;;;;13.89;53.16;98494.81;5454417;26;20341;-43
2024/04/18 08:08:11;;;;;;;;;;;;;;;13.96;51.93;98497.28;5454092;26;19934;-42
2024/04/18 08:10:36;;;;;;;;;;;;;;;14.27;52.43;98484.91;5453679;26;19932;-41
2024/04/18 08:13:02;;;;;;;;;;;;;;;14.65;51.65;98491.06;5454284;26;19924;-44
2024/04/18 08:15:27;;;;;;;;;;;;;;;14.79;51.38;98489.53;5453775;26;20322;-44
2024/04/18 08:17:52;;;;;;;;;;;;;;;14.69;51.74;98486.78;5453399;26;19924;-44
2024/04/18 08:20:17;;;;;;;;;;;;;;;15.06;51.55;98488.56;5453499;26;19924;-45
2024/04/18 08:22:43;;;;;;;;;;;;;;;14.81;51.38;98503.47;5453374;26;19932;-43
2024/04/18 08:25:08;;;;;;;;;;;;;;;15.16;50.09;98512.69;5452775;26;19928;-45
2024/04/18 08:27:34;;;;;;;;;;;;;;;15.51;50.17;98499.63;5453879;26;19925;-47
2024/04/18 08:30:00;;;;;;;;;;;;;;;16.11;49.10;98494.59;5453459;26;19993;-47
2024/04/18 08:32:25;;;;;;;;;;;;;;;16.10;48.77;98504.50;5453529;26;19932;-42
2024/04/18 08:34:50;;;;;;;;;;;;;;;15.36;49.26;98498.53;5453635;26;20001;-42
2024/04/18 08:37:15;;;;;;;;;;;;;;;15.65;49.44;98511.47;5453654;26;20252;-42
2024/04/18 08:39:40;;;;;;;;;;;;;;;16.60;48.67;98507.38;5453979;26;20245;-43
2024/04/18 08:42:09;;;;;;;;;;;;;;;17.06;46.36;98501.88;5453705;26;19924;-45
2024/04/18 08:44:35;;;;;;;;;;;;;;;17.72;45.97;98503.34;5453509;26;19925;-44
2024/04/18 08:47:01;;;;;;;;;;;;;;;17.73;46.47;98490.72;5453192;26;19931;-43
2024/04/18 08:49:27;;;;;;;;;;;;;;;17.88;45.80;98504.09;5453016;26;19935;-40
2024/04/18 08:51:53;;;;;;;;;;;;;;;18.44;44.23;98499.28;5453268;26;20256;-44
2024/04/18 08:54:19;;;;;;;;;;;;;;;18.25;44.58;98504.56;5452709;26;19936;-43
2024/04/18 08:56:47;;;;;;;;;;;;;;;18.12;42.88;98501.44;5452956;26;19931;-43
2024/04/18 08:59:13;;;;;;;;;;;;;;;17.11;43.76;98507.22;5453013;26;19925;-45
2024/04/18 09:01:39;;;;;;;;;;;;;;;18.05;42.13;98502.84;5452569;26;19925;-45
2024/04/18 09:04:04;;;;;;;;;;;;;;;18.03;42.05;98496.94;5452777;26;19924;-42
2024/04/18 09:06:29;;;;;;;;;;;;;;;18.28;41.69;98507.50;5452832;26;19932;-41
2024/04/18 09:08:57;;;;;;;;;;;;;;;18.78;40.24;98517.22;5451462;26;19993;-47
2024/04/18 09:11:23;;;;;;;;;;;;;;;18.15;40.80;98518.94;5452580;26;20072;-42
2024/04/18 09:13:48;;;;;;;;;;;;;;;17.84;39.96;98521.88;5452077;26;19944;-42
2024/04/18 09:16:13;;;;;;;;;;;;;;;17.75;40.08;98534.28;5452251;26;20014;-42
2024/04/18 09:18:39;;;;;;;;;;;;;;;18.50;40.36;98511.59;5452543;26;19924;-45
2024/04/18 09:21:09;;;;;;;;;;;;;;;19.53;39.38;98530.03;5452201;26;19924;-44
2024/04/18 09:23:35;;;;;;;;;;;;;;;19.24;38.35;98522.06;5452158;26;19932;-41
2024/04/18 09:26:00;;;;;;;;;;;;;;;18.85;39.72;98531.16;5452561;26;19925;-41
2024/04/18 09:28:26;;;;;;;;;;;;;;;19.12;38.69;98522.50;5452274;26;19925;-42
2024/04/18 09:30:54;;;;;;;;;;;;;;;18.65;39.92;98516.00;5452041;26;20433;-42
2024/04/18 09:33:20;;;;;;;;;;;;;;;19.12;39.54;98519.81;5452099;26;19931;-41
2024/04/18 09:35:48;;;;;;;;;;;;;;;19.46;39.27;98533.09;5452112;26;19925;-46
2024/04/18 09:38:16;;;;;;;;;;;;;;;19.23;39.02;98533.94;5451924;26;20362;-44
2024/04/18 09:40:44;;;;;;;;;;;;;;;19.68;37.45;98512.81;5451942;26;20299;-40
2024/04/18 09:43:16;;;;;;;;;;;;;;;19.48;38.29;98519.34;5452062;26;19935;-40
2024/04/18 09:45:48;;;;;;;;;;;;;;;18.78;39.65;98517.22;5451672;26;20257;-40
2024/04/18 09:48:14;;;;;;;;;;;;;;;19.38;38.70;98512.19;5451774;26;20273;-41
2024/04/18 09:50:40;;;;;;;;;;;;;;;19.56;39.16;98512.47;5452128;26;19932;-44
2024/04/18 09:53:06;;;;;;;;;;;;;;;18.37;39.79;98504.97;5451781;26;19935;-40
2024/04/18 09:55:32;;;;;;;;;;;;;;;18.00;40.88;98492.16;5452193;26;19985;-42
2024/04/18 09:57:57;;;;;;;;;;;;;;;18.60;40.34;98514.19;5452239;26;19931;-42
2024/04/18 10:00:23;;;;;;;;;;;;;;;18.52;40.27;98512.94;5452072;26;19925;-40
2024/04/18 10:02:50;;;;;;;;;;;;;;;18.42;41.14;98514.91;5452084;26;19924;-46
2024/04/18 10:05:15;;;;;;;;;;;;;;;19.04;40.73;98507.78;5453073;26;19930;-41
2024/04/18 10:07:42;;;;;;;;;;;;;;;19.90;38.66;98514.94;5452094;26;19924;-47
2024/04/18 10:10:07;;;;;;;;;;;;;;;20.28;39.21;98521.06;5451735;26;19924;-45
2024/04/18 10:12:33;;;;;;;;;;;;;;;20.22;37.46;98506.03;5450190;26;19940;-43
2024/04/18 10:15:01;;;;;;;;;;;;;;;19.48;42.46;98516.63;5451709;26;19931;-47
2024/04/18 10:17:30;;;;;;;;;;;;;;;19.94;41.24;98521.34;5451138;26;19999;-40
2024/04/18 10:19:58;;;;;;;;;;;;;;;20.17;41.30;98525.03;5451694;26;19925;-41
2024/04/18 10:22:24;;;;;;;;;;;;;;;20.62;39.16;98513.72;5450111;26;19924;-42
2024/04/18 10:24:50;;;;;;;;;;;;;;;20.48;38.14;98514.47;5454029;26;19931;-43
2024/04/18 10:27:18;;;;;;;;;;;;;;;20.29;39.48;98522.63;5454663;26;19931;-44
2024/04/18 10:29:56;;;;;;;;;;;;;;;20.16;38.48;98522.63;5449597;26;19925;-43
2024/04/18 10:32:22;;;;;;;;;;;;;;;20.66;38.01;98526.34;5454629;26;19924;-43
2024/04/18 10:34:47;;;;;;;;;;;;;;;19.62;38.33;98522.09;5455180;26;19932;-43
2024/04/18 10:37:18;;;;;;;;;;;;;;;19.66;39.11;98526.59;5454575;26;19925;-41
2024/04/18 10:39:45;;;;;;;;;;;;;;;19.98;40.93;98526.97;5454493;26;19925;-44
2024/04/18 10:42:11;;;;;;;;;;;;;;;20.40;38.97;98527.88;5449634;26;19924;-40
2024/04/18 10:44:37;;;;;;;;;;;;;;;19.57;38.63;98535.66;5452750;26;19928;-42
2024/04/18 10:47:03;;;;;;;;;;;;;;;19.93;38.37;98533.25;5454141;26;19932;-42
2024/04/18 10:49:28;;;;;;;;;;;;;;;19.52;38.21;98539.22;5453971;26;19993;-42
2024/04/18 10:51:56;;;;;;;;;;;;;;;18.72;38.87;98546.91;5452316;26;19924;-42
2024/04/18 10:54:21;;;;;;;;;;;;;;;19.30;38.26;98526.31;5454420;26;19924;-46
2024/04/18 10:56:46;;;;;;;;;;;;;;;19.66;37.83;98529.28;5454190;26;19931;-39
2024/04/18 10:59:12;;;;;;;;;;;;;;;19.71;36.67;98520.34;5454730;26;19932;-41
2024/04/18 11:01:38;;;;;;;;;;;;;;;19.48;37.05;98530.91;5454097;26;20056;-39
2024/04/18 11:04:06;;;;;;;;;;;;;;;19.70;36.42;98516.84;5453667;26;19931;-40
2024/04/18 11:06:31;;;;;;;;;;;;;;;19.64;36.09;98507.19;5449750;26;19931;-45
2024/04/18 11:09:00;;;;;;;;;;;;;;;19.57;36.65;98531.03;5454503;26;19924;-41
2024/04/18 11:11:31;;;;;;;;;;;;;;;19.63;35.71;98527.19;5454127;26;20005;-42
2024/04/18 11:13:57;;;;;;;;;;;;;;;20.05;35.15;98530.09;5449774;26;19986;-39
2024/04/18 11:16:24;;;;;;;;;;;;;;;19.19;35.91;98524.84;5453649;26;19956;-41
2024/04/18 11:18:49;;;;;;;;;;;;;;;19.47;35.91;98521.22;5453737;26;20344;-39
2024/04/18 11:21:14;;;;;;;;;;;;;;;20.45;36.01;98514.28;5453311;26;19924;-37
2024/04/18 11:23:40;;;;;;;;;;;;;;;21.19;34.14;98514.19;5453699;26;19928;-39
2024/04/18 11:26:05;;;;;;;;;;;;;;;21.06;34.04;98517.72;5453872;26;19924;-45
2024/04/18 11:28:31;;;;;;;;;;;;;;;21.04;33.75;98522.63;5453633;26;19931;-40
2024/04/18 11:30:57;;;;;;;;;;;;;;;21.05;33.95;98516.91;5453291;26;19930;-40
2024/04/18 11:33:22;;;;;;;;;;;;;;;20.88;34.53;98527.53;5452675;26;19924;-42
2024/04/18 11:35:48;;;;;;;;;;;;;;;21.18;34.40;98531.53;5457623;26;19936;-38
2024/04/18 11:38:17;;;;;;;;;;;;;;;20.97;35.36;98520.31;5468648;26;19952;-42
2024/04/18 11:40:42;;;;;;;;;;;;;;;20.95;34.73;98525.25;5472898;26;19952;-42
2024/04/18 11:43:08;;;;;;;;;;;;;;;21.15;34.73;98523.22;5469690;26;19925;-42
2024/04/18 11:45:33;;;;;;;;;;;;;;;21.36;34.15;98528.97;5483257;26;19936;-40
2024/04/18 11:47:58;;;;;;;;;;;;;;;22.06;32.89;98535.78;5489925;26;19924;-41
2024/04/18 11:50:25;;;;;;;;;;;;;;;21.62;31.71;98521.94;5490621;26;19992;-41
2024/04/18 11:52:51;;;;;;;;;;;;;;;21.55;32.05;98529.69;5490242;26;19932;-40
2024/04/18 11:55:16;;;;;;;;;;;;;;;20.75;32.93;98520.22;5490775;26;20284;-43
2024/04/18 11:57:41;;;;;;;;;;;;;;;21.20;33.17;98533.94;5490478;26;19931;-38
2024/04/18 12:00:07;;;;;;;;;;;;;;;21.60;31.98;98526.06;5490118;26;19931;-42
2024/04/18 12:02:32;;;;;;;;;;;;;;;20.62;33.18;98530.75;5490606;26;20424;-42
2024/04/18 12:04:57;;;;;;;;;;;;;;;21.24;32.87;98538.41;5489892;26;19992;-43
2024/04/18 12:07:23;;;;;;;;;;;;;;;21.06;32.07;98539.38;5490392;26;19931;-27
2024/04/18 12:09:51;;;;;;;;;;;;;;;21.63;30.92;98530.88;5490472;26;20263;-28
2024/04/18 12:12:16;;;;;;;;;;;;;;;21.46;32.14;98535.00;5489854;26;19927;-28
2024/04/18 12:14:46;;;;;;;;;;;;;;;21.64;31.45;98537.88;5489894;26;19924;-29
2024/04/18 12:17:11;;;;;;;;;;;;;;;21.37;30.71;98520.56;5490422;26;19928;-31
2024/04/18 12:19:37;;;;;;;;;;;;;;;21.01;30.83;98524.03;5490116;26;19924;-26
2024/04/18 12:22:04;;;;;;;;;;;;;;;20.99;30.68;98511.91;5489406;26;19931;-27
2024/04/18 12:24:29;;;;;;;;;;;;;;;20.85;30.76;98515.44;5489644;26;19924;-26
2024/04/18 12:26:54;;;;;;;;;;;;;;;20.81;31.96;98529.84;5489990;26;19948;-29
2024/04/18 12:29:21;;;;;;;;;;;;;;;20.44;32.04;98520.78;5489994;26;19924;-28
2024/04/18 12:31:46;;;;;;;;;;;;;;;20.33;32.59;98511.25;5490342;26;19923;-29
2024/04/18 12:34:11;;;;;;;;;;;;;;;20.36;32.41;98519.56;5489889;26;20358;-30
2024/04/18 12:36:37;;;;;;;;;;;;;;;20.50;31.87;98504.19;5489882;26;19939;-43
2024/04/18 12:39:03;;;;;;;;;;;;;;;20.74;31.63;98515.94;5489536;26;19932;-41
2024/04/18 12:41:28;;;;;;;;;;;;;;;21.10;31.57;98513.31;5489111;26;19931;-40